Terminal Aerodrome Forecast
Issued by NWS

Current Version | Previous Version | Text Only | Print | Product List | Glossary Off
Versions: 1 2 3 4 5 6 7 8 9 10 11 12 13 14 15 16 17 18 19

000
FTUS41 KPBZ 180500
TAFMGW
TAF
KMGW 180523Z 1806/1906 23007KT P6SM BKN050
     FM180900 26008G16KT P6SM BKN025
     FM182000 28012G22KT P6SM VCSH OVC025
     FM190500 30009KT P6SM BKN025=

USA.gov is the U.S. government's official web portal to all federal, state and local government web resources and services.